Time;durP1;ratioP1;P1;durP2;ratioP2;P2;SDS_P1;SDS_P2;PMS_P1;PMS_P2;Temp;Humidity;BMP_temperature;BMP_pressure;BME280_temperature;BME280_humidity;BME280_pressure;Samples;Min_cycle;Max_cycle;Signal;HPM_P1;HPM_P2
2022/12/10 00:00:51;;;;;;;52.07;24.50;;;10.30;51.80;;;;;;4990569;28;20457;-80
2022/12/10 00:03:19;;;;;;;52.67;25.30;;;10.40;51.00;;;;;;4993085;28;20455;-80
2022/12/10 00:05:46;;;;;;;56.57;25.77;;;10.40;50.30;;;;;;4991889;28;20477;-80
2022/12/10 00:08:14;;;;;;;54.50;25.40;;;10.20;51.30;;;;;;4988517;28;20476;-80
2022/12/10 00:10:42;;;;;;;49.57;24.27;;;10.30;51.10;;;;;;4993682;28;20457;-80
2022/12/10 00:13:11;;;;;;;53.23;24.57;;;10.20;50.80;;;;;;4992074;28;20457;-80
2022/12/10 00:15:39;;;;;;;49.93;23.93;;;10.10;51.90;;;;;;4990898;28;20457;-80
2022/12/10 00:18:06;;;;;;;51.53;24.50;;;10.20;51.20;;;;;;4993527;28;20488;-81
2022/12/10 00:20:36;;;;;;;51.90;24.63;;;10.20;51.10;;;;;;4991255;28;20449;-79
2022/12/10 00:23:04;;;;;;;52.60;25.60;;;10.30;51.50;;;;;;4991489;28;20453;-79
2022/12/10 00:25:32;;;;;;;49.10;23.60;;;10.20;50.40;;;;;;4990672;28;20477;-79
2022/12/10 00:28:00;;;;;;;52.43;24.93;;;10.20;51.70;;;;;;4991677;28;20975;-79
2022/12/10 00:30:29;;;;;;;48.00;23.60;;;10.20;50.60;;;;;;4991685;28;20511;-80
2022/12/10 00:32:57;;;;;;;49.63;22.87;;;10.10;51.30;;;;;;4994600;28;20452;-80
2022/12/10 00:35:25;;;;;;;50.77;24.63;;;10.10;51.70;;;;;;4991188;28;20449;-80
2022/12/10 00:37:53;;;;;;;49.47;23.90;;;10.10;51.40;;;;;;4987880;28;20473;-80
2022/12/10 00:40:21;;;;;;;51.27;23.17;;;10.20;51.60;;;;;;4993017;28;20460;-81
2022/12/10 00:42:49;;;;;;;49.90;23.47;;;10.20;51.30;;;;;;4993036;28;20465;-80
2022/12/10 00:45:17;;;;;;;49.33;24.03;;;10.20;51.50;;;;;;4992718;28;20483;-80
2022/12/10 00:47:47;;;;;;;53.17;24.10;;;10.20;50.60;;;;;;4990905;28;20470;-80
2022/12/10 00:50:15;;;;;;;52.87;25.60;;;10.10;50.80;;;;;;4993359;28;20450;-80
2022/12/10 00:52:43;;;;;;;52.63;25.20;;;10.10;50.30;;;;;;4996059;28;20483;-80
2022/12/10 00:55:10;;;;;;;50.90;25.43;;;10.00;50.80;;;;;;4991989;28;20453;-79
2022/12/10 00:57:38;;;;;;;51.90;25.40;;;10.00;50.80;;;;;;4989061;28;20453;-80
2022/12/10 01:00:08;;;;;;;52.50;24.80;;;10.00;50.80;;;;;;4996375;28;20452;-80
2022/12/10 01:02:37;;;;;;;54.17;25.50;;;9.90;51.80;;;;;;4994083;28;20970;-81
2022/12/10 01:05:07;;;;;;;53.60;25.97;;;9.90;52.00;;;;;;4995823;28;20483;-81
2022/12/10 01:07:35;;;;;;;49.37;24.27;;;9.90;51.40;;;;;;4996337;28;20493;-82
2022/12/10 01:10:03;;;;;;;48.60;23.87;;;10.00;50.60;;;;;;4993801;28;20464;-81
2022/12/10 01:12:32;;;;;;;48.07;23.73;;;9.90;51.10;;;;;;4996971;28;20453;-79
2022/12/10 01:14:59;;;;;;;51.10;23.80;;;9.80;51.30;;;;;;4994809;28;20453;-81
2022/12/10 01:17:27;;;;;;;50.23;23.73;;;9.90;51.50;;;;;;4995761;28;20484;-79
2022/12/10 01:19:55;;;;;;;48.73;23.20;;;9.80;51.80;;;;;;4995900;28;20864;-80
2022/12/10 01:22:25;;;;;;;46.47;22.70;;;9.80;51.30;;;;;;4991682;28;20453;-80
2022/12/10 01:24:53;;;;;;;48.93;23.53;;;9.80;51.90;;;;;;4995977;28;20473;-81
2022/12/10 01:27:21;;;;;;;49.97;23.57;;;9.70;51.10;;;;;;4989364;28;20474;-82
2022/12/10 01:29:49;;;;;;;55.30;24.17;;;9.70;51.60;;;;;;4991536;28;20445;-79
2022/12/10 01:32:17;;;;;;;51.80;23.53;;;9.80;51.50;;;;;;4994704;28;20468;-77
2022/12/10 01:34:45;;;;;;;49.07;23.27;;;9.60;51.30;;;;;;4995976;28;20449;-79
2022/12/10 01:37:12;;;;;;;47.93;22.80;;;9.50;51.70;;;;;;4996230;28;20457;-79
2022/12/10 01:39:42;;;;;;;46.03;23.03;;;9.50;52.60;;;;;;4996138;28;20441;-79
2022/12/10 01:42:10;;;;;;;48.73;23.40;;;9.50;51.40;;;;;;4991486;28;20464;-80
2022/12/10 01:44:58;;;;;;;48.83;23.10;;;9.50;51.80;;;;;;4995929;28;20465;-79
2022/12/10 01:47:25;;;;;;;45.43;21.90;;;9.50;52.00;;;;;;4995385;28;20461;-80
2022/12/10 01:49:54;;;;;;;45.90;22.20;;;9.60;51.80;;;;;;4995447;28;20453;-78
2022/12/10 01:52:22;;;;;;;47.53;23.30;;;9.50;52.20;;;;;;4996218;28;20445;-79
2022/12/10 01:54:51;;;;;;;48.67;24.03;;;9.60;51.70;;;;;;4995924;28;20454;-79
2022/12/10 01:57:20;;;;;;;46.80;22.73;;;9.60;52.00;;;;;;4992825;28;20484;-79
2022/12/10 01:59:52;;;;;;;93.60;42.33;;;9.60;51.10;;;;;;4995667;28;20533;-77
2022/12/10 02:02:29;;;;;;;129.37;58.87;;;9.70;52.30;;;;;;4994703;28;20430;-79
2022/12/10 02:05:03;;;;;;;93.67;43.67;;;9.80;51.90;;;;;;4994919;28;20507;-79
2022/12/10 02:07:37;;;;;;;87.90;40.53;;;9.80;52.00;;;;;;4995065;28;20449;-78
2022/12/10 02:10:09;;;;;;;79.70;37.17;;;9.80;51.20;;;;;;4990544;28;20471;-79
2022/12/10 02:12:40;;;;;;;74.53;33.67;;;9.80;51.80;;;;;;4981286;28;20430;-79
2022/12/10 02:15:13;;;;;;;74.87;34.87;;;9.90;52.20;;;;;;4982042;28;20446;-78
2022/12/10 02:17:43;;;;;;;69.27;33.23;;;10.00;51.40;;;;;;4976502;28;20819;-79
2022/12/10 02:20:13;;;;;;;67.00;30.77;;;10.00;50.40;;;;;;4976237;28;20446;-80
2022/12/10 02:22:43;;;;;;;64.67;30.10;;;10.00;51.00;;;;;;4983072;28;20500;-79
2022/12/10 02:25:13;;;;;;;57.17;28.00;;;9.90;50.90;;;;;;4995008;28;20485;-78
2022/12/10 02:27:45;;;;;;;54.20;26.33;;;10.00;50.40;;;;;;4992201;28;20469;-79
2022/12/10 02:30:14;;;;;;;56.77;27.30;;;9.90;51.20;;;;;;4995415;28;20441;-79
2022/12/10 02:32:43;;;;;;;50.20;24.43;;;9.90;51.70;;;;;;4994597;28;20480;-79
2022/12/10 02:35:13;;;;;;;49.00;25.33;;;10.10;50.60;;;;;;4995008;28;20453;-78
2022/12/10 02:37:43;;;;;;;50.80;24.67;;;10.10;49.70;;;;;;4994990;28;20489;-78
2022/12/10 02:40:14;;;;;;;54.00;26.80;;;9.90;50.30;;;;;;4986523;28;20454;-78
2022/12/10 02:42:42;;;;;;;55.77;25.80;;;9.80;50.30;;;;;;4995048;28;20445;-79
2022/12/10 02:45:10;;;;;;;53.43;25.90;;;9.80;50.90;;;;;;4994576;28;20469;-78
2022/12/10 02:47:40;;;;;;;55.43;24.60;;;9.70;50.60;;;;;;4983199;28;20535;-79
2022/12/10 02:50:08;;;;;;;53.63;23.73;;;9.80;50.60;;;;;;4994732;28;20453;-79
2022/12/10 02:52:37;;;;;;;51.43;23.40;;;9.70;50.60;;;;;;4994429;28;20544;-79
2022/12/10 02:55:05;;;;;;;49.33;23.80;;;9.60;50.50;;;;;;4992924;28;20458;-78
2022/12/10 02:57:37;;;;;;;49.07;24.83;;;9.70;50.80;;;;;;4990920;28;20477;-78
2022/12/10 03:00:07;;;;;;;46.77;23.00;;;9.80;50.70;;;;;;4995105;28;20475;-78
2022/12/10 03:02:44;;;;;;;46.90;23.63;;;9.80;50.40;;;;;;4995328;28;20435;-78
2022/12/10 03:05:15;;;;;;;50.53;23.80;;;9.80;50.30;;;;;;4996488;28;20421;-79
2022/12/10 03:07:46;;;;;;;46.63;23.93;;;9.80;49.90;;;;;;4995341;28;20464;-79
2022/12/10 03:10:17;;;;;;;48.90;23.70;;;9.80;50.00;;;;;;4995041;28;20450;-79
2022/12/10 03:12:47;;;;;;;51.20;25.27;;;10.00;49.50;;;;;;4994620;28;20445;-78
2022/12/10 03:15:15;;;;;;;51.10;25.10;;;10.10;48.60;;;;;;4980796;28;20446;-80
2022/12/10 03:17:44;;;;;;;49.10;24.43;;;10.00;48.00;;;;;;4975095;28;20757;-78
2022/12/10 03:20:14;;;;;;;49.40;24.23;;;9.90;49.10;;;;;;4989768;28;20441;-79
2022/12/10 03:22:44;;;;;;;53.80;26.07;;;9.80;50.10;;;;;;4993040;28;20511;-78
2022/12/10 03:25:13;;;;;;;52.10;24.80;;;9.90;49.70;;;;;;4989183;28;20466;-79
2022/12/10 03:27:41;;;;;;;49.63;23.33;;;9.90;49.60;;;;;;4993305;28;20485;-77
2022/12/10 03:30:10;;;;;;;48.20;24.57;;;9.90;48.90;;;;;;4991727;28;20461;-78
2022/12/10 03:32:38;;;;;;;46.60;22.80;;;9.80;49.30;;;;;;4992906;28;20456;-79
2022/12/10 03:35:08;;;;;;;48.70;24.37;;;9.80;49.00;;;;;;4993036;28;20449;-79
2022/12/10 03:37:36;;;;;;;52.80;24.43;;;9.80;49.20;;;;;;4993801;28;20480;-79
2022/12/10 03:40:06;;;;;;;47.00;22.10;;;9.90;49.60;;;;;;4990035;28;20469;-79
2022/12/10 03:42:36;;;;;;;47.23;24.37;;;10.00;48.40;;;;;;4992103;28;20445;-79
2022/12/10 03:45:04;;;;;;;46.77;23.40;;;10.00;48.00;;;;;;4990961;28;20460;-79
2022/12/10 03:47:32;;;;;;;47.93;23.67;;;9.90;49.00;;;;;;4993190;28;20481;-76
2022/12/10 03:50:00;;;;;;;49.20;23.60;;;9.90;49.30;;;;;;4992004;28;20503;-78
2022/12/10 03:52:29;;;;;;;48.10;24.13;;;9.90;49.00;;;;;;4992435;28;20461;-80
2022/12/10 03:54:58;;;;;;;54.70;24.47;;;9.80;48.00;;;;;;4990704;28;20464;-79
2022/12/10 03:57:25;;;;;;;46.63;22.87;;;9.70;48.50;;;;;;4991878;28;20477;-76
2022/12/10 03:59:54;;;;;;;48.40;23.63;;;9.60;48.50;;;;;;4991277;28;20460;-78
2022/12/10 04:02:21;;;;;;;49.17;23.73;;;9.60;48.40;;;;;;4991203;28;20449;-79
2022/12/10 04:04:50;;;;;;;45.63;22.30;;;9.60;49.30;;;;;;4991198;28;20533;-78
2022/12/10 04:07:17;;;;;;;50.60;24.90;;;9.70;49.30;;;;;;4990916;28;20481;-79
2022/12/10 04:09:47;;;;;;;47.00;23.20;;;9.80;48.70;;;;;;4991735;28;20457;-79
2022/12/10 04:12:15;;;;;;;48.70;24.20;;;9.80;48.40;;;;;;4990530;28;20460;-80
2022/12/10 04:17:28;;;;;;;49.20;23.83;;;9.60;48.40;;;;;;4989983;28;20469;-79
2022/12/10 04:19:57;;;;;;;47.50;23.37;;;9.70;48.90;;;;;;4990767;28;20456;-79
2022/12/10 04:27:58;;;;;;;47.60;23.23;;;9.60;48.00;;;;;;4996652;28;20491;-78
2022/12/10 04:30:25;;;;;;;50.27;24.83;;;9.50;48.70;;;;;;4995569;28;20456;-80
2022/12/10 04:32:53;;;;;;;48.80;23.13;;;9.40;47.90;;;;;;4994158;28;20480;-79
2022/12/10 04:35:21;;;;;;;48.03;23.40;;;9.40;48.80;;;;;;4995287;28;20461;-78
2022/12/10 04:37:49;;;;;;;42.73;21.90;;;9.30;48.70;;;;;;4996650;28;20477;-79
2022/12/10 04:40:18;;;;;;;47.10;23.57;;;9.30;48.60;;;;;;4994294;28;20475;-78
2022/12/10 04:42:46;;;;;;;48.47;23.97;;;9.30;48.90;;;;;;4995050;28;20453;-79
2022/12/10 04:45:14;;;;;;;47.97;23.57;;;9.20;49.00;;;;;;4994352;28;20464;-79
2022/12/10 04:47:42;;;;;;;48.30;24.40;;;9.10;48.70;;;;;;4994665;28;20481;-79
2022/12/10 04:50:10;;;;;;;50.43;23.80;;;9.20;49.00;;;;;;4994249;28;20457;-79
2022/12/10 04:52:38;;;;;;;49.90;25.63;;;9.30;48.70;;;;;;4993199;28;20461;-78
2022/12/10 04:55:07;;;;;;;50.67;24.80;;;9.30;49.00;;;;;;4993228;28;20457;-78
2022/12/10 04:57:36;;;;;;;45.97;22.73;;;9.40;48.40;;;;;;4989872;28;20492;-79
2022/12/10 05:00:05;;;;;;;47.60;23.43;;;9.50;48.60;;;;;;4992605;28;20461;-79
2022/12/10 05:02:34;;;;;;;48.77;24.37;;;9.40;47.70;;;;;;4994846;28;20464;-78
2022/12/10 05:05:02;;;;;;;52.47;24.73;;;9.40;48.30;;;;;;4994101;28;20465;-78
2022/12/10 05:07:30;;;;;;;52.40;26.10;;;9.50;48.20;;;;;;5001243;28;20479;-79
2022/12/10 05:09:58;;;;;;;47.07;23.00;;;9.40;47.00;;;;;;4995473;28;20457;-80
2022/12/10 05:12:27;;;;;;;52.80;25.93;;;9.20;48.20;;;;;;4996944;28;20457;-80
2022/12/10 05:14:56;;;;;;;50.60;24.60;;;9.20;48.00;;;;;;4993997;28;20461;-79
2022/12/10 05:17:23;;;;;;;51.47;24.43;;;9.30;48.50;;;;;;4994028;28;20896;-79
2022/12/10 05:19:52;;;;;;;52.17;25.80;;;9.30;48.20;;;;;;4995218;28;20453;-79
2022/12/10 05:25:07;;;;;;;51.23;25.00;;;9.30;48.30;;;;;;4994779;28;20457;-79
2022/12/10 05:27:35;;;;;;;49.57;25.40;;;9.20;47.60;;;;;;4994080;28;20480;-78
2022/12/10 05:30:05;;;;;;;53.63;25.67;;;9.20;48.00;;;;;;4994161;28;20480;-78
2022/12/10 05:32:34;;;;;;;52.77;25.07;;;9.30;48.20;;;;;;4990633;28;20445;-79
2022/12/10 05:35:02;;;;;;;52.63;26.77;;;9.20;48.20;;;;;;4994472;28;20456;-79
2022/12/10 05:37:30;;;;;;;49.87;24.80;;;9.30;48.50;;;;;;4993529;28;20465;-78
2022/12/10 05:39:58;;;;;;;50.43;24.73;;;9.30;47.60;;;;;;4993864;28;20453;-79
2022/12/10 05:42:26;;;;;;;52.50;25.07;;;9.20;47.90;;;;;;4993461;28;20457;-80
2022/12/10 05:44:54;;;;;;;51.70;25.10;;;9.00;48.10;;;;;;4992580;28;20452;-79
2022/12/10 05:47:23;;;;;;;54.30;25.77;;;9.20;48.70;;;;;;4993424;28;20489;-78
2022/12/10 05:49:51;;;;;;;51.50;24.53;;;9.30;48.40;;;;;;4993827;28;20456;-77
2022/12/10 05:52:19;;;;;;;49.00;25.13;;;9.30;48.00;;;;;;4992897;28;20511;-78
2022/12/10 05:54:47;;;;;;;52.37;26.00;;;9.30;47.70;;;;;;4993017;28;20457;-78
2022/12/10 05:57:15;;;;;;;52.10;25.70;;;9.30;47.80;;;;;;4993444;28;20481;-78
2022/12/10 05:59:43;;;;;;;49.10;24.83;;;9.20;47.30;;;;;;4994000;28;20508;-79
2022/12/10 06:02:11;;;;;;;52.93;26.70;;;9.30;48.00;;;;;;4997513;28;20994;-78
2022/12/10 06:04:40;;;;;;;50.37;25.40;;;9.30;48.10;;;;;;4990615;28;20452;-78
2022/12/10 06:07:11;;;;;;;56.57;26.73;;;9.20;47.50;;;;;;4993284;28;20480;-78
2022/12/10 06:09:39;;;;;;;50.53;25.27;;;9.20;48.40;;;;;;4993588;28;20556;-77
2022/12/10 06:12:07;;;;;;;47.17;24.60;;;9.30;48.60;;;;;;4992374;28;20464;-77
2022/12/10 06:14:35;;;;;;;50.93;25.70;;;9.50;47.80;;;;;;4991937;28;20457;-78
2022/12/10 06:17:03;;;;;;;51.60;26.50;;;9.40;47.20;;;;;;4988639;28;21007;-77
2022/12/10 06:19:31;;;;;;;48.50;24.80;;;9.30;47.60;;;;;;4992743;28;20460;-77
2022/12/10 06:22:01;;;;;;;48.20;25.07;;;9.40;48.00;;;;;;4990602;28;20457;-76
2022/12/10 06:24:28;;;;;;;51.43;25.63;;;9.40;47.70;;;;;;4992645;28;20465;-78
2022/12/10 06:26:57;;;;;;;55.20;26.30;;;9.30;47.80;;;;;;4992400;28;20533;-77
2022/12/10 06:29:25;;;;;;;52.53;24.87;;;9.30;48.60;;;;;;4993049;28;20465;-79
2022/12/10 06:31:53;;;;;;;50.30;25.30;;;9.40;47.90;;;;;;4992868;28;20457;-78
2022/12/10 06:34:21;;;;;;;52.63;24.97;;;9.30;47.60;;;;;;4992593;28;20464;-78
2022/12/10 06:36:49;;;;;;;49.83;25.53;;;9.30;48.00;;;;;;4990294;28;20457;-76
2022/12/10 06:39:18;;;;;;;51.43;26.10;;;9.40;48.10;;;;;;4991939;28;20453;-78
2022/12/10 06:41:46;;;;;;;51.23;26.40;;;9.40;48.20;;;;;;4993334;28;20457;-76
2022/12/10 06:44:14;;;;;;;52.47;26.60;;;9.50;47.90;;;;;;4990073;28;20464;-78
2022/12/10 06:46:43;;;;;;;49.70;26.03;;;9.50;47.90;;;;;;4991873;28;20449;-78
2022/12/10 06:49:11;;;;;;;53.60;26.73;;;9.50;47.70;;;;;;4993142;28;20469;-77
2022/12/10 06:51:39;;;;;;;52.33;26.50;;;9.50;48.10;;;;;;4994534;28;20449;-78
2022/12/10 06:54:07;;;;;;;49.73;24.67;;;9.50;47.60;;;;;;4992904;28;20453;-77
2022/12/10 06:56:36;;;;;;;56.77;26.97;;;9.50;47.90;;;;;;4992828;28;20462;-78
2022/12/10 06:59:06;;;;;;;50.90;26.50;;;9.50;47.30;;;;;;4993315;28;20506;-78
2022/12/10 07:01:34;;;;;;;49.90;26.17;;;9.40;47.30;;;;;;4994123;28;20452;-77
2022/12/10 07:04:02;;;;;;;52.57;25.17;;;9.40;48.00;;;;;;4993041;28;20461;-77
2022/12/10 07:06:31;;;;;;;50.53;24.77;;;9.50;47.90;;;;;;4989626;28;20449;-79
2022/12/10 07:08:59;;;;;;;49.00;25.23;;;9.50;47.20;;;;;;4992421;28;20481;-80
2022/12/10 07:11:27;;;;;;;48.20;25.10;;;9.50;48.40;;;;;;4992112;28;20453;-79
2022/12/10 07:13:56;;;;;;;47.47;25.70;;;9.50;47.60;;;;;;4992860;28;20453;-78
2022/12/10 07:16:26;;;;;;;50.20;24.93;;;9.50;47.30;;;;;;4991852;28;20454;-79
2022/12/10 07:18:54;;;;;;;52.57;25.13;;;9.50;47.00;;;;;;4992208;28;20473;-76
2022/12/10 07:21:23;;;;;;;49.20;24.50;;;9.50;48.30;;;;;;4989629;28;20476;-78
2022/12/10 07:23:53;;;;;;;48.70;24.60;;;9.60;47.70;;;;;;4986626;28;20456;-79
2022/12/10 07:26:21;;;;;;;52.30;25.60;;;9.60;47.40;;;;;;4990197;28;20457;-78
2022/12/10 07:28:49;;;;;;;48.57;23.80;;;9.60;46.80;;;;;;4992159;28;20480;-79
2022/12/10 07:31:22;;;;;;;45.37;24.23;;;9.50;47.40;;;;;;4991741;28;20461;-76
2022/12/10 07:33:51;;;;;;;50.97;24.37;;;9.60;48.10;;;;;;4992277;28;20461;-79
2022/12/10 07:36:19;;;;;;;46.00;23.97;;;9.40;47.40;;;;;;4992739;28;20460;-78
2022/12/10 07:38:47;;;;;;;47.70;24.40;;;9.40;48.30;;;;;;4983477;28;20482;-79
2022/12/10 07:41:15;;;;;;;50.83;24.73;;;9.30;47.80;;;;;;4990393;28;20468;-78
2022/12/10 07:43:44;;;;;;;50.93;25.27;;;9.20;48.30;;;;;;4986944;28;20458;-79
2022/12/10 07:46:13;;;;;;;49.13;24.70;;;9.30;48.30;;;;;;4991079;28;20449;-78
2022/12/10 07:48:43;;;;;;;47.30;24.17;;;9.40;49.00;;;;;;4991812;28;20476;-79
2022/12/10 07:51:11;;;;;;;48.60;23.30;;;9.50;48.50;;;;;;4989896;28;20460;-79
2022/12/10 07:53:39;;;;;;;49.67;24.93;;;9.50;47.30;;;;;;4990872;28;20457;-78
2022/12/10 07:56:07;;;;;;;47.27;23.97;;;9.40;47.60;;;;;;4990893;28;20532;-77
2022/12/10 07:58:36;;;;;;;49.20;24.23;;;9.30;47.80;;;;;;4992174;28;20508;-78
2022/12/10 08:01:07;;;;;;;46.67;24.20;;;9.30;48.50;;;;;;4988790;28;20461;-78
2022/12/10 08:03:35;;;;;;;48.50;24.47;;;9.30;48.60;;;;;;4990618;28;20453;-77
2022/12/10 08:06:05;;;;;;;53.50;25.97;;;9.30;48.70;;;;;;4995268;28;20546;-79
2022/12/10 08:08:33;;;;;;;50.13;24.10;;;9.40;48.60;;;;;;4990214;28;20485;-76
2022/12/10 08:11:02;;;;;;;48.87;23.20;;;9.40;48.00;;;;;;4991122;28;20508;-78
2022/12/10 08:13:29;;;;;;;45.67;23.70;;;9.40;48.50;;;;;;4990036;28;20970;-78
2022/12/10 08:16:01;;;;;;;50.70;25.50;;;9.40;48.00;;;;;;4991645;28;20461;-78
2022/12/10 08:18:30;;;;;;;49.97;25.73;;;9.30;49.00;;;;;;4989857;28;20477;-77
2022/12/10 08:20:58;;;;;;;50.07;24.50;;;9.60;49.10;;;;;;4991541;28;20484;-78
2022/12/10 08:23:27;;;;;;;42.27;22.23;;;9.80;48.30;;;;;;4990555;28;20457;-77
2022/12/10 08:25:55;;;;;;;46.83;23.93;;;9.70;47.80;;;;;;4991128;28;20492;-77
2022/12/10 08:28:23;;;;;;;49.67;25.10;;;9.60;47.80;;;;;;4989505;28;20472;-77
2022/12/10 08:30:52;;;;;;;53.43;24.50;;;9.60;48.00;;;;;;4990697;28;20457;-78
2022/12/10 08:33:19;;;;;;;44.30;23.53;;;9.60;48.40;;;;;;4990733;28;20461;-78
2022/12/10 08:35:48;;;;;;;57.87;27.60;;;9.70;48.00;;;;;;4989948;28;20456;-79
2022/12/10 08:38:16;;;;;;;54.77;26.90;;;9.90;48.10;;;;;;4985991;28;20477;-78
2022/12/10 08:40:45;;;;;;;48.50;25.50;;;9.90;47.30;;;;;;4985937;28;20466;-78
2022/12/10 08:43:13;;;;;;;48.07;25.63;;;10.00;47.20;;;;;;4989202;28;20476;-77
2022/12/10 08:45:41;;;;;;;49.70;25.10;;;9.90;47.90;;;;;;4989511;28;20457;-78
2022/12/10 08:48:09;;;;;;;44.80;23.10;;;10.00;46.80;;;;;;4990228;28;20592;-77
2022/12/10 08:50:37;;;;;;;46.43;23.50;;;10.00;46.60;;;;;;4990239;28;20481;-79
2022/12/10 08:53:05;;;;;;;47.30;25.20;;;10.10;47.00;;;;;;4990997;28;20449;-77
2022/12/10 08:55:33;;;;;;;50.07;23.80;;;10.10;46.20;;;;;;4988199;28;20450;-78
2022/12/10 08:58:03;;;;;;;47.50;25.23;;;10.10;47.00;;;;;;4988937;28;20485;-77
2022/12/10 09:00:31;;;;;;;45.27;24.07;;;10.00;46.20;;;;;;4991032;28;20445;-78
2022/12/10 09:02:59;;;;;;;48.60;23.93;;;10.00;46.50;;;;;;4990523;28;20460;-78
2022/12/10 09:05:27;;;;;;;48.90;25.00;;;10.10;46.60;;;;;;4988541;28;20570;-78
2022/12/10 09:07:54;;;;;;;52.13;23.37;;;10.00;46.60;;;;;;4989489;28;20485;-78
2022/12/10 09:10:23;;;;;;;44.43;24.10;;;9.90;47.90;;;;;;4991066;28;20477;-78
2022/12/10 09:12:51;;;;;;;47.73;24.50;;;9.90;48.30;;;;;;4994815;28;20453;-78
2022/12/10 09:15:20;;;;;;;51.33;24.67;;;9.90;47.60;;;;;;4995622;28;20452;-77
2022/12/10 09:17:48;;;;;;;49.70;25.77;;;9.90;48.20;;;;;;4995545;28;20491;-78
2022/12/10 09:20:16;;;;;;;43.67;23.77;;;9.90;48.60;;;;;;4994001;28;20457;-78
2022/12/10 09:22:44;;;;;;;47.10;23.90;;;10.00;47.70;;;;;;4992904;28;20460;-77
2022/12/10 09:25:15;;;;;;;45.53;23.20;;;10.00;46.90;;;;;;4993856;28;20515;-78
2022/12/10 09:27:42;;;;;;;52.50;24.93;;;10.10;47.40;;;;;;4993742;28;20476;-78
2022/12/10 09:30:11;;;;;;;46.90;24.93;;;10.30;47.30;;;;;;4995541;28;20484;-79
2022/12/10 09:32:41;;;;;;;33.83;17.27;;;10.30;46.40;;;;;;4982686;28;20520;-84
2022/12/10 09:35:09;;;;;;;26.40;12.33;;;10.30;50.40;;;;;;4998160;28;20442;-81
2022/12/10 09:37:36;;;;;;;30.03;15.40;;;11.30;55.70;;;;;;4996375;28;20471;-82
2022/12/10 09:40:05;;;;;;;29.53;13.47;;;12.00;55.00;;;;;;4997155;28;20430;-83
2022/12/10 09:42:39;;;;;;;30.80;16.60;;;12.50;54.80;;;;;;4996785;28;20441;-82
2022/12/10 09:45:09;;;;;;;31.50;13.30;;;12.80;53.60;;;;;;5018355;28;20460;-86
2022/12/10 09:47:40;;;;;;;25.13;11.23;;;13.20;53.80;;;;;;5015225;28;20469;-80
2022/12/10 09:50:13;;;;;;;23.33;13.00;;;13.90;54.20;;;;;;5012167;28;20469;-80
2022/12/10 09:52:44;;;;;;;33.77;15.27;;;14.40;51.80;;;;;;5011692;28;20449;-80
2022/12/10 09:55:13;;;;;;;34.50;18.40;;;14.80;50.30;;;;;;5017538;28;20441;-80
2022/12/10 09:57:43;;;;;;;30.57;18.47;;;14.80;46.80;;;;;;5016078;28;20471;-79
2022/12/10 10:00:19;;;;;;;29.10;18.60;;;15.00;46.20;;;;;;5009088;28;20485;-79
2022/12/10 10:02:49;;;;;;;33.30;19.50;;;15.20;45.20;;;;;;5013637;28;20433;-80
2022/12/10 10:05:21;;;;;;;33.33;19.00;;;15.30;44.10;;;;;;5006786;28;20437;-81
2022/12/10 10:07:50;;;;;;;33.90;20.37;;;15.50;43.70;;;;;;5013351;28;20481;-81
2022/12/10 10:10:23;;;;;;;32.30;20.40;;;15.60;43.00;;;;;;5014403;28;20473;-81
2022/12/10 10:12:52;;;;;;;30.70;18.57;;;15.70;42.20;;;;;;5003411;28;20460;-81
2022/12/10 10:15:23;;;;;;;43.63;21.37;;;15.80;41.80;;;;;;4998312;28;20449;-78
2022/12/10 10:17:53;;;;;;;37.63;21.20;;;15.50;39.00;;;;;;5006176;28;20544;-82
2022/12/10 10:20:21;;;;;;;37.77;19.93;;;15.50;40.60;;;;;;5005788;28;20457;-81
2022/12/10 10:22:49;;;;;;;36.73;21.60;;;15.10;40.10;;;;;;5000203;28;20456;-82
2022/12/10 10:25:19;;;;;;;43.17;22.27;;;14.50;40.00;;;;;;4996421;28;20445;-81
2022/12/10 10:27:47;;;;;;;40.33;22.00;;;13.60;40.20;;;;;;4998167;28;20480;-81
2022/12/10 10:30:16;;;;;;;42.13;21.23;;;13.40;40.70;;;;;;4996306;28;20477;-80
2022/12/10 10:32:50;;;;;;;39.33;21.30;;;13.10;41.00;;;;;;4995574;28;20449;-81
2022/12/10 10:35:43;;;;;;;43.50;22.17;;;12.30;41.50;;;;;;4993550;28;20980;-77
2022/12/10 10:38:16;;;;;;;44.00;23.53;;;12.40;42.00;;;;;;4994320;28;20480;-81
2022/12/10 10:40:45;;;;;;;38.00;21.57;;;11.80;42.00;;;;;;4996175;28;20457;-81
2022/12/10 10:43:15;;;;;;;37.00;18.97;;;11.20;42.70;;;;;;4992774;28;20480;-80
2022/12/10 10:45:43;;;;;;;35.40;19.47;;;11.80;45.80;;;;;;4993618;28;20461;-80
2022/12/10 10:48:13;;;;;;;30.37;17.37;;;12.50;43.80;;;;;;4994640;28;20480;-78
2022/12/10 10:50:44;;;;;;;32.90;17.13;;;13.00;43.40;;;;;;4992899;28;20481;-81
2022/12/10 10:53:28;;;;;;;32.87;17.70;;;13.40;43.40;;;;;;4998125;28;20444;-79
2022/12/10 10:55:58;;;;;;;30.40;17.40;;;13.70;42.50;;;;;;4998329;28;20456;-82
2022/12/10 10:58:26;;;;;;;31.87;16.73;;;13.80;42.00;;;;;;4998825;28;20477;-82
2022/12/10 11:00:55;;;;;;;29.17;17.37;;;13.90;43.00;;;;;;5005606;28;20500;-79
2022/12/10 11:03:23;;;;;;;33.37;18.83;;;13.90;42.90;;;;;;4994564;28;20447;-82
2022/12/10 11:05:52;;;;;;;32.67;16.07;;;14.00;43.10;;;;;;4989698;28;20458;-84
2022/12/10 11:08:20;;;;;;;25.20;15.67;;;14.30;43.60;;;;;;4998051;28;20473;-82
2022/12/10 11:10:49;;;;;;;31.50;16.80;;;14.50;44.00;;;;;;5004467;28;20528;-87
2022/12/10 11:13:21;;;;;;;30.77;18.90;;;14.60;43.40;;;;;;4991635;28;20449;-84
2022/12/10 11:15:55;;;;;;;33.33;18.43;;;14.50;41.60;;;;;;4998774;28;20469;-84
2022/12/10 11:18:26;;;;;;;32.80;19.57;;;14.10;40.80;;;;;;4993322;28;20488;-83
2022/12/10 11:21:00;;;;;;;34.73;19.80;;;13.80;40.70;;;;;;4995773;28;20446;-83
2022/12/10 11:23:29;;;;;;;34.07;19.57;;;13.40;41.00;;;;;;4997180;28;20528;-82
2022/12/10 11:26:02;;;;;;;34.53;20.00;;;13.30;41.30;;;;;;4996397;28;20454;-82
2022/12/10 11:28:37;;;;;;;35.40;19.23;;;13.10;41.40;;;;;;4995291;28;20469;-84
2022/12/10 11:31:28;;;;;;;38.20;19.77;;;13.00;41.80;;;;;;4999932;28;20472;-81
2022/12/10 11:33:59;;;;;;;36.13;19.50;;;12.60;42.70;;;;;;4996904;28;20457;-79
2022/12/10 11:36:31;;;;;;;39.70;21.47;;;12.50;42.60;;;;;;4992072;28;20453;-81
2022/12/10 11:39:03;;;;;;;34.40;20.30;;;12.30;43.40;;;;;;4998369;28;20473;-81
2022/12/10 11:41:33;;;;;;;33.77;20.70;;;12.20;43.00;;;;;;4999183;28;20472;-82
2022/12/10 11:44:16;;;;;;;37.70;21.00;;;12.20;43.50;;;;;;4995237;28;20459;-80
2022/12/10 11:47:03;;;;;;;35.80;19.53;;;12.20;43.10;;;;;;4988128;28;20453;-81
2022/12/10 11:49:35;;;;;;;32.93;17.67;;;11.90;43.30;;;;;;4996079;28;20453;-80
2022/12/10 11:52:07;;;;;;;32.83;17.80;;;12.00;43.40;;;;;;4996271;28;20485;-79
2022/12/10 11:54:54;;;;;;;25.57;15.27;;;11.90;44.20;;;;;;4992985;28;20450;-79
2022/12/10 11:57:32;;;;;;;29.90;14.07;;;12.60;45.90;;;;;;4990610;28;20473;-80
2022/12/10 12:00:01;;;;;;;24.07;13.77;;;13.00;45.40;;;;;;4992354;28;20441;-79
2022/12/10 12:02:42;;;;;;;27.53;15.00;;;13.20;45.20;;;;;;4993313;28;20605;-79
2022/12/10 12:05:25;;;;;;;24.30;13.13;;;13.40;45.10;;;;;;4992496;28;20484;-79
2022/12/10 12:07:56;;;;;;;20.20;12.37;;;13.40;45.00;;;;;;4991266;28;20482;-79
2022/12/10 12:10:54;;;;;;;26.20;13.37;;;13.50;45.10;;;;;;4991743;28;20483;-78
2022/12/10 12:13:24;;;;;;;38.63;13.87;;;13.50;44.90;;;;;;4993619;28;20445;-80
2022/12/10 12:15:55;;;;;;;24.53;12.87;;;13.50;45.10;;;;;;4989850;28;20453;-80
2022/12/10 12:18:24;;;;;;;21.27;13.37;;;13.50;45.10;;;;;;4993103;28;20489;-78
2022/12/10 12:20:54;;;;;;;25.33;12.87;;;13.50;45.10;;;;;;4990030;28;20989;-78
2022/12/10 12:23:25;;;;;;;21.33;12.73;;;13.60;45.20;;;;;;4992808;28;20472;-79
2022/12/10 12:25:56;;;;;;;25.03;12.77;;;13.60;45.20;;;;;;4994499;28;20464;-79
2022/12/10 12:28:26;;;;;;;19.87;11.90;;;13.60;45.20;;;;;;4994617;28;20474;-78
2022/12/10 12:30:59;;;;;;;20.87;12.00;;;13.60;45.30;;;;;;4991423;28;20503;-80
2022/12/10 12:33:30;;;;;;;17.93;11.20;;;13.60;45.30;;;;;;4997605;28;20460;-79
2022/12/10 12:35:59;;;;;;;19.00;11.90;;;13.60;45.40;;;;;;4993119;28;20460;-80
2022/12/10 12:38:31;;;;;;;18.10;11.17;;;13.60;45.40;;;;;;4997903;28;20565;-80
2022/12/10 12:41:02;;;;;;;20.50;12.10;;;13.60;45.40;;;;;;4999761;28;20445;-79
2022/12/10 12:43:36;;;;;;;18.40;11.60;;;13.60;45.50;;;;;;4993444;28;20484;-80
2022/12/10 12:46:05;;;;;;;19.53;11.37;;;13.60;45.50;;;;;;4995398;28;20457;-79
2022/12/10 12:48:35;;;;;;;23.37;11.40;;;13.60;45.60;;;;;;5005519;28;20477;-78
2022/12/10 12:51:04;;;;;;;18.83;10.70;;;13.60;45.60;;;;;;4993273;28;20473;-79
2022/12/10 12:53:33;;;;;;;17.03;10.77;;;13.50;45.60;;;;;;4999423;28;20461;-79
2022/12/10 12:56:04;;;;;;;27.47;11.13;;;13.50;45.80;;;;;;5000493;28;20510;-78